sensor_id;sensor_type;location;lat;lon;timestamp;temperature;humidity
37938;DHT22;23763;48.130;11.602;2022-12-07T00:00:55;4.30;99.90
37938;DHT22;23763;48.130;11.602;2022-12-07T00:03:20;4.20;99.90
37938;DHT22;23763;48.130;11.602;2022-12-07T00:05:46;4.20;99.90
37938;DHT22;23763;48.130;11.602;2022-12-07T00:08:12;4.30;99.90
37938;DHT22;23763;48.130;11.602;2022-12-07T00:10:37;4.30;99.90
37938;DHT22;23763;48.130;11.602;2022-12-07T00:13:03;4.30;99.90
37938;DHT22;23763;48.130;11.602;2022-12-07T00:15:28;4.30;99.90
37938;DHT22;23763;48.130;11.602;2022-12-07T00:17:54;4.30;99.90
37938;DHT22;23763;48.130;11.602;2022-12-07T00:20:20;4.20;99.90
37938;DHT22;23763;48.130;11.602;2022-12-07T00:22:45;4.20;99.90
37938;DHT22;23763;48.130;11.602;2022-12-07T00:25:11;4.20;99.90
37938;DHT22;23763;48.130;11.602;2022-12-07T00:27:36;4.20;99.90
37938;DHT22;23763;48.130;11.602;2022-12-07T00:30:02;4.30;99.90
37938;DHT22;23763;48.130;11.602;2022-12-07T00:32:28;4.30;99.90
37938;DHT22;23763;48.130;11.602;2022-12-07T00:34:53;4.40;99.90
37938;DHT22;23763;48.130;11.602;2022-12-07T00:37:19;4.30;99.90
37938;DHT22;23763;48.130;11.602;2022-12-07T00:39:46;4.30;99.90
37938;DHT22;23763;48.130;11.602;2022-12-07T00:42:11;4.30;99.90
37938;DHT22;23763;48.130;11.602;2022-12-07T00:44:37;4.30;99.90
37938;DHT22;23763;48.130;11.602;2022-12-07T00:47:02;4.20;99.90
37938;DHT22;23763;48.130;11.602;2022-12-07T00:49:28;4.20;99.90
37938;DHT22;23763;48.130;11.602;2022-12-07T00:51:54;4.10;99.90
37938;DHT22;23763;48.130;11.602;2022-12-07T00:54:19;4.20;99.90
37938;DHT22;23763;48.130;11.602;2022-12-07T00:56:45;4.10;99.90
37938;DHT22;23763;48.130;11.602;2022-12-07T00:59:12;4.20;99.90
37938;DHT22;23763;48.130;11.602;2022-12-07T01:01:41;4.20;99.90
37938;DHT22;23763;48.130;11.602;2022-12-07T01:04:07;4.30;99.90
37938;DHT22;23763;48.130;11.602;2022-12-07T01:06:33;4.30;99.90
37938;DHT22;23763;48.130;11.602;2022-12-07T01:08:59;4.20;99.90
37938;DHT22;23763;48.130;11.602;2022-12-07T01:11:27;4.20;99.90
37938;DHT22;23763;48.130;11.602;2022-12-07T01:13:54;4.20;99.90
37938;DHT22;23763;48.130;11.602;2022-12-07T01:16:22;4.20;99.90
37938;DHT22;23763;48.130;11.602;2022-12-07T01:18:50;4.20;99.90
37938;DHT22;23763;48.130;11.602;2022-12-07T01:21:24;4.20;99.90
37938;DHT22;23763;48.130;11.602;2022-12-07T01:23:51;4.20;99.90
37938;DHT22;23763;48.130;11.602;2022-12-07T01:26:19;4.20;99.90
37938;DHT22;23763;48.130;11.602;2022-12-07T01:28:45;4.10;99.90
37938;DHT22;23763;48.130;11.602;2022-12-07T01:31:17;4.40;99.90
37938;DHT22;23763;48.130;11.602;2022-12-07T01:33:48;4.20;99.90
37938;DHT22;23763;48.130;11.602;2022-12-07T01:39:00;4.20;99.90
37938;DHT22;23763;48.130;11.602;2022-12-07T01:41:29;4.10;99.90
37938;DHT22;23763;48.130;11.602;2022-12-07T01:44:12;4.10;99.90
37938;DHT22;23763;48.130;11.602;2022-12-07T01:46:39;4.20;99.90
37938;DHT22;23763;48.130;11.602;2022-12-07T01:49:08;4.10;99.90
37938;DHT22;23763;48.130;11.602;2022-12-07T01:51:37;4.10;99.90
37938;DHT22;23763;48.130;11.602;2022-12-07T01:54:03;4.00;99.90
37938;DHT22;23763;48.130;11.602;2022-12-07T01:56:29;4.00;99.90
37938;DHT22;23763;48.130;11.602;2022-12-07T01:58:56;4.00;99.90
37938;DHT22;23763;48.130;11.602;2022-12-07T02:01:24;4.00;99.90
37938;DHT22;23763;48.130;11.602;2022-12-07T02:03:50;4.00;99.90
37938;DHT22;23763;48.130;11.602;2022-12-07T02:06:20;4.00;99.90
37938;DHT22;23763;48.130;11.602;2022-12-07T02:08:46;4.00;99.90
37938;DHT22;23763;48.130;11.602;2022-12-07T02:11:12;4.20;99.90
37938;DHT22;23763;48.130;11.602;2022-12-07T02:13:40;4.10;99.90
37938;DHT22;23763;48.130;11.602;2022-12-07T02:30:12;4.00;99.90
37938;DHT22;23763;48.130;11.602;2022-12-07T02:32:40;3.90;99.90
37938;DHT22;23763;48.130;11.602;2022-12-07T02:38:08;4.00;99.90
37938;DHT22;23763;48.130;11.602;2022-12-07T02:40:39;4.00;99.90
37938;DHT22;23763;48.130;11.602;2022-12-07T02:43:19;4.00;99.90
37938;DHT22;23763;48.130;11.602;2022-12-07T02:45:47;4.00;99.90
37938;DHT22;23763;48.130;11.602;2022-12-07T02:48:17;4.00;99.90
37938;DHT22;23763;48.130;11.602;2022-12-07T02:50:51;4.10;99.90
37938;DHT22;23763;48.130;11.602;2022-12-07T02:53:40;4.10;99.90
37938;DHT22;23763;48.130;11.602;2022-12-07T02:59:13;4.00;99.90
37938;DHT22;23763;48.130;11.602;2022-12-07T03:04:56;3.80;99.90
37938;DHT22;23763;48.130;11.602;2022-12-07T03:07:38;3.80;99.90
37938;DHT22;23763;48.130;11.602;2022-12-07T03:18:20;3.90;99.90
37938;DHT22;23763;48.130;11.602;2022-12-07T03:20:48;3.90;99.90
37938;DHT22;23763;48.130;11.602;2022-12-07T03:23:17;3.80;99.90
37938;DHT22;23763;48.130;11.602;2022-12-07T03:25:47;3.90;99.90
37938;DHT22;23763;48.130;11.602;2022-12-07T03:28:17;3.90;99.90
37938;DHT22;23763;48.130;11.602;2022-12-07T03:30:51;3.90;99.90
37938;DHT22;23763;48.130;11.602;2022-12-07T03:33:29;3.90;99.90
37938;DHT22;23763;48.130;11.602;2022-12-07T03:36:03;3.90;99.90
37938;DHT22;23763;48.130;11.602;2022-12-07T03:39:02;4.00;99.90
37938;DHT22;23763;48.130;11.602;2022-12-07T03:41:31;4.10;99.90
37938;DHT22;23763;48.130;11.602;2022-12-07T03:43:58;4.10;99.90
37938;DHT22;23763;48.130;11.602;2022-12-07T03:46:45;4.10;99.90
37938;DHT22;23763;48.130;11.602;2022-12-07T03:55:05;4.10;99.90
37938;DHT22;23763;48.130;11.602;2022-12-07T03:57:33;4.10;99.90
37938;DHT22;23763;48.130;11.602;2022-12-07T04:00:00;4.00;99.90
37938;DHT22;23763;48.130;11.602;2022-12-07T04:02:27;3.90;99.90
37938;DHT22;23763;48.130;11.602;2022-12-07T04:04:55;3.90;99.90
37938;DHT22;23763;48.130;11.602;2022-12-07T04:07:21;3.90;99.90
37938;DHT22;23763;48.130;11.602;2022-12-07T04:09:46;4.00;99.90
37938;DHT22;23763;48.130;11.602;2022-12-07T04:12:12;3.90;99.90
37938;DHT22;23763;48.130;11.602;2022-12-07T04:14:37;3.80;99.90
37938;DHT22;23763;48.130;11.602;2022-12-07T04:17:03;3.80;99.90
37938;DHT22;23763;48.130;11.602;2022-12-07T04:19:31;3.90;99.90
37938;DHT22;23763;48.130;11.602;2022-12-07T04:21:57;3.90;99.90
37938;DHT22;23763;48.130;11.602;2022-12-07T04:24:23;3.90;99.90
37938;DHT22;23763;48.130;11.602;2022-12-07T04:26:49;3.90;99.90
37938;DHT22;23763;48.130;11.602;2022-12-07T04:29:16;4.00;99.90
37938;DHT22;23763;48.130;11.602;2022-12-07T04:31:42;4.00;99.90
37938;DHT22;23763;48.130;11.602;2022-12-07T04:34:08;4.00;99.90
37938;DHT22;23763;48.130;11.602;2022-12-07T04:36:34;4.00;99.90
37938;DHT22;23763;48.130;11.602;2022-12-07T04:39:00;4.00;99.90
37938;DHT22;23763;48.130;11.602;2022-12-07T04:41:26;4.10;99.90
37938;DHT22;23763;48.130;11.602;2022-12-07T04:44:03;4.10;99.90
37938;DHT22;23763;48.130;11.602;2022-12-07T04:46:31;4.00;99.90
37938;DHT22;23763;48.130;11.602;2022-12-07T04:48:57;4.00;99.90
37938;DHT22;23763;48.130;11.602;2022-12-07T04:51:26;4.00;99.90
37938;DHT22;23763;48.130;11.602;2022-12-07T04:53:52;4.10;99.90
37938;DHT22;23763;48.130;11.602;2022-12-07T04:56:18;4.00;99.90
37938;DHT22;23763;48.130;11.602;2022-12-07T04:58:45;4.00;99.90
37938;DHT22;23763;48.130;11.602;2022-12-07T05:01:11;4.00;99.90
37938;DHT22;23763;48.130;11.602;2022-12-07T05:03:37;3.80;99.90
37938;DHT22;23763;48.130;11.602;2022-12-07T05:06:03;3.90;99.90
37938;DHT22;23763;48.130;11.602;2022-12-07T05:08:29;3.90;99.90
37938;DHT22;23763;48.130;11.602;2022-12-07T05:10:55;3.90;99.90
37938;DHT22;23763;48.130;11.602;2022-12-07T05:13:21;3.80;99.90
37938;DHT22;23763;48.130;11.602;2022-12-07T05:15:47;3.80;99.90
37938;DHT22;23763;48.130;11.602;2022-12-07T05:18:13;3.90;99.90
37938;DHT22;23763;48.130;11.602;2022-12-07T05:20:39;3.80;99.90
37938;DHT22;23763;48.130;11.602;2022-12-07T05:23:05;3.70;99.90
37938;DHT22;23763;48.130;11.602;2022-12-07T05:25:30;3.70;99.90
37938;DHT22;23763;48.130;11.602;2022-12-07T05:27:56;3.70;99.90
37938;DHT22;23763;48.130;11.602;2022-12-07T05:30:23;3.60;99.90
37938;DHT22;23763;48.130;11.602;2022-12-07T05:32:49;3.60;99.90
37938;DHT22;23763;48.130;11.602;2022-12-07T05:35:15;3.60;99.90
37938;DHT22;23763;48.130;11.602;2022-12-07T05:37:40;3.60;99.90
37938;DHT22;23763;48.130;11.602;2022-12-07T05:40:06;3.60;99.90
37938;DHT22;23763;48.130;11.602;2022-12-07T05:42:32;3.50;99.90
37938;DHT22;23763;48.130;11.602;2022-12-07T05:44:58;3.50;99.90
37938;DHT22;23763;48.130;11.602;2022-12-07T05:47:23;3.70;99.90
37938;DHT22;23763;48.130;11.602;2022-12-07T05:49:49;3.60;99.90
37938;DHT22;23763;48.130;11.602;2022-12-07T05:52:15;3.70;99.90
37938;DHT22;23763;48.130;11.602;2022-12-07T05:54:41;3.80;99.90
37938;DHT22;23763;48.130;11.602;2022-12-07T05:57:06;3.70;99.90
37938;DHT22;23763;48.130;11.602;2022-12-07T05:59:32;3.60;99.90
37938;DHT22;23763;48.130;11.602;2022-12-07T06:02:13;3.60;99.90
37938;DHT22;23763;48.130;11.602;2022-12-07T06:04:41;3.50;99.90
37938;DHT22;23763;48.130;11.602;2022-12-07T06:07:08;3.60;99.90
37938;DHT22;23763;48.130;11.602;2022-12-07T06:09:34;3.50;99.90
37938;DHT22;23763;48.130;11.602;2022-12-07T06:12:00;3.60;99.90
37938;DHT22;23763;48.130;11.602;2022-12-07T06:14:44;3.60;99.90
37938;DHT22;23763;48.130;11.602;2022-12-07T06:17:11;3.60;99.90
37938;DHT22;23763;48.130;11.602;2022-12-07T06:19:37;3.70;99.90
37938;DHT22;23763;48.130;11.602;2022-12-07T06:22:04;3.60;99.90
37938;DHT22;23763;48.130;11.602;2022-12-07T06:24:31;3.50;99.90
37938;DHT22;23763;48.130;11.602;2022-12-07T06:26:56;3.60;99.90
37938;DHT22;23763;48.130;11.602;2022-12-07T06:29:22;3.90;99.90
37938;DHT22;23763;48.130;11.602;2022-12-07T06:31:48;3.50;99.90
37938;DHT22;23763;48.130;11.602;2022-12-07T06:34:16;3.50;99.90
37938;DHT22;23763;48.130;11.602;2022-12-07T06:36:42;3.50;99.90
37938;DHT22;23763;48.130;11.602;2022-12-07T06:39:08;3.60;99.90
37938;DHT22;23763;48.130;11.602;2022-12-07T06:41:38;3.50;99.90
37938;DHT22;23763;48.130;11.602;2022-12-07T06:44:05;3.50;99.90
37938;DHT22;23763;48.130;11.602;2022-12-07T06:46:31;3.60;99.90
37938;DHT22;23763;48.130;11.602;2022-12-07T06:48:57;3.60;99.90
37938;DHT22;23763;48.130;11.602;2022-12-07T06:51:22;3.60;99.90
37938;DHT22;23763;48.130;11.602;2022-12-07T06:53:48;3.50;99.90
37938;DHT22;23763;48.130;11.602;2022-12-07T06:56:14;3.50;99.90
37938;DHT22;23763;48.130;11.602;2022-12-07T06:58:40;3.50;99.90
37938;DHT22;23763;48.130;11.602;2022-12-07T07:01:14;3.50;99.90
37938;DHT22;23763;48.130;11.602;2022-12-07T07:03:40;3.60;99.90
37938;DHT22;23763;48.130;11.602;2022-12-07T07:06:06;3.60;99.90
37938;DHT22;23763;48.130;11.602;2022-12-07T07:08:33;3.60;99.90
37938;DHT22;23763;48.130;11.602;2022-12-07T07:10:59;3.60;99.90
37938;DHT22;23763;48.130;11.602;2022-12-07T07:13:24;3.60;99.90
37938;DHT22;23763;48.130;11.602;2022-12-07T07:15:50;3.70;99.90
37938;DHT22;23763;48.130;11.602;2022-12-07T07:18:15;3.60;99.90
37938;DHT22;23763;48.130;11.602;2022-12-07T07:20:41;3.60;99.90
37938;DHT22;23763;48.130;11.602;2022-12-07T07:23:07;3.60;99.90
37938;DHT22;23763;48.130;11.602;2022-12-07T07:25:32;3.70;99.90
37938;DHT22;23763;48.130;11.602;2022-12-07T07:27:58;3.60;99.90
37938;DHT22;23763;48.130;11.602;2022-12-07T07:30:24;3.60;99.90
37938;DHT22;23763;48.130;11.602;2022-12-07T07:32:50;3.70;99.90
37938;DHT22;23763;48.130;11.602;2022-12-07T07:35:16;3.70;99.90
37938;DHT22;23763;48.130;11.602;2022-12-07T07:37:41;3.70;99.90
37938;DHT22;23763;48.130;11.602;2022-12-07T07:40:08;3.60;99.90
37938;DHT22;23763;48.130;11.602;2022-12-07T07:42:34;3.70;99.90
37938;DHT22;23763;48.130;11.602;2022-12-07T07:45:00;3.70;99.90
37938;DHT22;23763;48.130;11.602;2022-12-07T07:47:25;3.70;99.90
37938;DHT22;23763;48.130;11.602;2022-12-07T07:49:51;3.70;99.90
37938;DHT22;23763;48.130;11.602;2022-12-07T07:52:16;3.90;99.90
37938;DHT22;23763;48.130;11.602;2022-12-07T07:54:42;3.80;99.90
37938;DHT22;23763;48.130;11.602;2022-12-07T07:57:07;3.90;99.90
37938;DHT22;23763;48.130;11.602;2022-12-07T07:59:33;3.80;99.90
37938;DHT22;23763;48.130;11.602;2022-12-07T08:01:59;3.90;99.90
37938;DHT22;23763;48.130;11.602;2022-12-07T08:04:24;3.90;99.90
37938;DHT22;23763;48.130;11.602;2022-12-07T08:06:50;3.90;99.90
37938;DHT22;23763;48.130;11.602;2022-12-07T08:09:15;3.90;99.90
37938;DHT22;23763;48.130;11.602;2022-12-07T08:11:41;3.80;99.90
37938;DHT22;23763;48.130;11.602;2022-12-07T08:14:06;3.90;99.90
37938;DHT22;23763;48.130;11.602;2022-12-07T08:16:32;3.90;99.90
37938;DHT22;23763;48.130;11.602;2022-12-07T08:18:57;4.00;99.90
37938;DHT22;23763;48.130;11.602;2022-12-07T08:21:23;4.00;99.90
37938;DHT22;23763;48.130;11.602;2022-12-07T08:23:49;3.90;99.90
37938;DHT22;23763;48.130;11.602;2022-12-07T08:26:16;3.90;99.90
37938;DHT22;23763;48.130;11.602;2022-12-07T08:28:42;3.90;99.90
37938;DHT22;23763;48.130;11.602;2022-12-07T08:31:14;3.90;99.90
37938;DHT22;23763;48.130;11.602;2022-12-07T08:33:40;3.90;99.90
37938;DHT22;23763;48.130;11.602;2022-12-07T08:36:09;4.00;99.90
37938;DHT22;23763;48.130;11.602;2022-12-07T08:38:37;4.10;99.90
37938;DHT22;23763;48.130;11.602;2022-12-07T08:41:05;4.10;99.90
37938;DHT22;23763;48.130;11.602;2022-12-07T08:43:31;4.10;99.90
37938;DHT22;23763;48.130;11.602;2022-12-07T08:46:36;4.10;99.90
37938;DHT22;23763;48.130;11.602;2022-12-07T08:49:40;4.10;99.90
37938;DHT22;23763;48.130;11.602;2022-12-07T08:51:58;4.20;99.90
37938;DHT22;23763;48.130;11.602;2022-12-07T08:54:23;4.40;99.90
37938;DHT22;23763;48.130;11.602;2022-12-07T08:56:49;4.40;99.90
37938;DHT22;23763;48.130;11.602;2022-12-07T08:59:17;4.40;99.90
37938;DHT22;23763;48.130;11.602;2022-12-07T09:01:44;4.40;99.90
37938;DHT22;23763;48.130;11.602;2022-12-07T09:04:10;4.50;99.90
37938;DHT22;23763;48.130;11.602;2022-12-07T09:06:36;4.60;99.90
37938;DHT22;23763;48.130;11.602;2022-12-07T09:09:03;4.70;99.90
37938;DHT22;23763;48.130;11.602;2022-12-07T09:11:29;4.50;99.90
37938;DHT22;23763;48.130;11.602;2022-12-07T09:13:55;4.50;99.90
37938;DHT22;23763;48.130;11.602;2022-12-07T09:16:21;4.50;99.90
37938;DHT22;23763;48.130;11.602;2022-12-07T09:18:47;4.60;99.90
37938;DHT22;23763;48.130;11.602;2022-12-07T09:21:12;4.40;99.90
37938;DHT22;23763;48.130;11.602;2022-12-07T09:23:38;4.40;99.90
37938;DHT22;23763;48.130;11.602;2022-12-07T09:26:04;4.40;99.90
37938;DHT22;23763;48.130;11.602;2022-12-07T09:28:33;4.40;99.90
37938;DHT22;23763;48.130;11.602;2022-12-07T09:30:59;4.70;99.90
37938;DHT22;23763;48.130;11.602;2022-12-07T09:33:25;4.70;99.90
37938;DHT22;23763;48.130;11.602;2022-12-07T09:35:51;4.60;99.90
37938;DHT22;23763;48.130;11.602;2022-12-07T09:38:18;4.60;99.90
37938;DHT22;23763;48.130;11.602;2022-12-07T09:40:44;4.70;99.90
37938;DHT22;23763;48.130;11.602;2022-12-07T09:43:19;4.80;99.90
37938;DHT22;23763;48.130;11.602;2022-12-07T09:45:48;4.80;99.90
37938;DHT22;23763;48.130;11.602;2022-12-07T09:48:39;4.90;99.90
37938;DHT22;23763;48.130;11.602;2022-12-07T09:51:19;4.90;99.90
37938;DHT22;23763;48.130;11.602;2022-12-07T09:53:46;5.00;99.90
37938;DHT22;23763;48.130;11.602;2022-12-07T09:56:16;5.10;99.90
37938;DHT22;23763;48.130;11.602;2022-12-07T09:58:43;5.20;99.90
37938;DHT22;23763;48.130;11.602;2022-12-07T10:03:36;5.30;99.90
37938;DHT22;23763;48.130;11.602;2022-12-07T10:06:05;5.50;99.90
37938;DHT22;23763;48.130;11.602;2022-12-07T10:08:32;5.50;99.90
37938;DHT22;23763;48.130;11.602;2022-12-07T10:10:59;5.40;99.90
37938;DHT22;23763;48.130;11.602;2022-12-07T10:13:52;5.30;99.90
37938;DHT22;23763;48.130;11.602;2022-12-07T10:18:47;5.40;99.90
37938;DHT22;23763;48.130;11.602;2022-12-07T10:21:18;5.40;99.90
37938;DHT22;23763;48.130;11.602;2022-12-07T10:24:04;5.30;99.90
37938;DHT22;23763;48.130;11.602;2022-12-07T10:26:50;5.40;99.90
37938;DHT22;23763;48.130;11.602;2022-12-07T10:29:29;5.50;99.90
37938;DHT22;23763;48.130;11.602;2022-12-07T10:32:29;5.60;99.90
37938;DHT22;23763;48.130;11.602;2022-12-07T10:37:44;5.80;99.90
37938;DHT22;23763;48.130;11.602;2022-12-07T10:40:35;5.90;99.90
37938;DHT22;23763;48.130;11.602;2022-12-07T10:43:03;6.00;99.90
37938;DHT22;23763;48.130;11.602;2022-12-07T10:45:29;6.00;99.90
37938;DHT22;23763;48.130;11.602;2022-12-07T11:06:43;6.10;99.90
37938;DHT22;23763;48.130;11.602;2022-12-07T11:12:41;5.80;99.90
37938;DHT22;23763;48.130;11.602;2022-12-07T11:15:22;5.60;99.90
37938;DHT22;23763;48.130;11.602;2022-12-07T11:20:54;5.40;99.90
37938;DHT22;23763;48.130;11.602;2022-12-07T11:27:11;5.50;99.90
37938;DHT22;23763;48.130;11.602;2022-12-07T11:35:29;5.70;99.90
37938;DHT22;23763;48.130;11.602;2022-12-07T11:37:56;5.70;99.90
37938;DHT22;23763;48.130;11.602;2022-12-07T11:40:27;5.60;99.90
37938;DHT22;23763;48.130;11.602;2022-12-07T11:46:05;5.50;99.90
37938;DHT22;23763;48.130;11.602;2022-12-07T11:48:46;5.60;99.90
37938;DHT22;23763;48.130;11.602;2022-12-07T11:51:13;5.80;99.90
37938;DHT22;23763;48.130;11.602;2022-12-07T11:53:48;5.90;99.90
37938;DHT22;23763;48.130;11.602;2022-12-07T11:56:17;5.80;99.90
37938;DHT22;23763;48.130;11.602;2022-12-07T12:03:51;5.70;99.90
37938;DHT22;23763;48.130;11.602;2022-12-07T12:06:18;5.60;99.90
37938;DHT22;23763;48.130;11.602;2022-12-07T12:19:58;5.90;99.90
37938;DHT22;23763;48.130;11.602;2022-12-07T12:22:40;6.00;99.90
37938;DHT22;23763;48.130;11.602;2022-12-07T12:27:52;6.10;99.90
37938;DHT22;23763;48.130;11.602;2022-12-07T12:30:40;6.10;99.90
37938;DHT22;23763;48.130;11.602;2022-12-07T12:33:16;6.00;99.90
37938;DHT22;23763;48.130;11.602;2022-12-07T12:35:45;6.10;99.90
37938;DHT22;23763;48.130;11.602;2022-12-07T12:38:32;6.00;99.90
37938;DHT22;23763;48.130;11.602;2022-12-07T12:40:59;6.00;99.90
37938;DHT22;23763;48.130;11.602;2022-12-07T12:43:51;5.90;99.90
37938;DHT22;23763;48.130;11.602;2022-12-07T12:51:56;5.90;99.90
37938;DHT22;23763;48.130;11.602;2022-12-07T12:54:27;6.00;99.90
37938;DHT22;23763;48.130;11.602;2022-12-07T13:02:53;5.90;99.90
37938;DHT22;23763;48.130;11.602;2022-12-07T13:05:20;5.90;99.90
37938;DHT22;23763;48.130;11.602;2022-12-07T13:12:58;5.90;99.90
37938;DHT22;23763;48.130;11.602;2022-12-07T13:15:42;5.80;99.90
37938;DHT22;23763;48.130;11.602;2022-12-07T13:26:43;6.00;99.90
37938;DHT22;23763;48.130;11.602;2022-12-07T13:31:56;6.10;99.90
37938;DHT22;23763;48.130;11.602;2022-12-07T13:34:40;6.20;99.90
37938;DHT22;23763;48.130;11.602;2022-12-07T13:37:21;6.10;99.90
37938;DHT22;23763;48.130;11.602;2022-12-07T13:39:52;6.00;99.90
37938;DHT22;23763;48.130;11.602;2022-12-07T13:42:28;6.00;99.90
37938;DHT22;23763;48.130;11.602;2022-12-07T13:44:55;6.10;99.90
37938;DHT22;23763;48.130;11.602;2022-12-07T13:47:41;6.10;99.90
37938;DHT22;23763;48.130;11.602;2022-12-07T13:50:41;6.00;99.90
37938;DHT22;23763;48.130;11.602;2022-12-07T13:53:12;6.00;99.90
37938;DHT22;23763;48.130;11.602;2022-12-07T13:55:45;5.90;99.90
37938;DHT22;23763;48.130;11.602;2022-12-07T13:58:11;5.90;99.90
37938;DHT22;23763;48.130;11.602;2022-12-07T14:00:41;5.80;99.90
37938;DHT22;23763;48.130;11.602;2022-12-07T14:05:40;5.90;99.90
37938;DHT22;23763;48.130;11.602;2022-12-07T14:10:54;5.90;99.90
37938;DHT22;23763;48.130;11.602;2022-12-07T14:16:03;5.60;99.90
37938;DHT22;23763;48.130;11.602;2022-12-07T14:18:40;5.50;99.90
37938;DHT22;23763;48.130;11.602;2022-12-07T14:23:36;5.40;99.90
37938;DHT22;23763;48.130;11.602;2022-12-07T14:26:13;5.30;99.90
37938;DHT22;23763;48.130;11.602;2022-12-07T14:28:40;5.30;99.90
37938;DHT22;23763;48.130;11.602;2022-12-07T14:33:38;5.20;99.90
37938;DHT22;23763;48.130;11.602;2022-12-07T14:36:04;5.10;99.90
37938;DHT22;23763;48.130;11.602;2022-12-07T14:38:29;5.10;99.90
37938;DHT22;23763;48.130;11.602;2022-12-07T14:40:55;5.10;99.90
37938;DHT22;23763;48.130;11.602;2022-12-07T14:43:42;5.10;99.90
37938;DHT22;23763;48.130;11.602;2022-12-07T14:46:09;5.30;99.90
37938;DHT22;23763;48.130;11.602;2022-12-07T14:48:34;5.10;99.90
37938;DHT22;23763;48.130;11.602;2022-12-07T14:51:00;4.90;99.90
37938;DHT22;23763;48.130;11.602;2022-12-07T14:53:30;4.90;99.90
37938;DHT22;23763;48.130;11.602;2022-12-07T14:55:57;4.90;99.90
37938;DHT22;23763;48.130;11.602;2022-12-07T14:58:22;5.00;99.90
37938;DHT22;23763;48.130;11.602;2022-12-07T15:00:48;5.00;99.90
37938;DHT22;23763;48.130;11.602;2022-12-07T15:03:14;4.90;99.90
37938;DHT22;23763;48.130;11.602;2022-12-07T15:05:40;4.90;99.90
37938;DHT22;23763;48.130;11.602;2022-12-07T15:08:08;4.80;99.90
37938;DHT22;23763;48.130;11.602;2022-12-07T15:10:34;4.70;99.90
37938;DHT22;23763;48.130;11.602;2022-12-07T15:13:01;4.60;99.90
37938;DHT22;23763;48.130;11.602;2022-12-07T15:15:47;4.60;99.90
37938;DHT22;23763;48.130;11.602;2022-12-07T15:18:13;4.40;99.90
37938;DHT22;23763;48.130;11.602;2022-12-07T15:20:38;4.40;99.90
37938;DHT22;23763;48.130;11.602;2022-12-07T15:23:04;4.30;99.90
37938;DHT22;23763;48.130;11.602;2022-12-07T15:25:30;4.40;99.90
37938;DHT22;23763;48.130;11.602;2022-12-07T15:27:55;4.50;99.90
37938;DHT22;23763;48.130;11.602;2022-12-07T15:30:21;4.40;99.90
37938;DHT22;23763;48.130;11.602;2022-12-07T15:32:53;4.40;99.90
37938;DHT22;23763;48.130;11.602;2022-12-07T15:35:19;4.30;99.90
37938;DHT22;23763;48.130;11.602;2022-12-07T15:37:45;4.30;99.90
37938;DHT22;23763;48.130;11.602;2022-12-07T15:40:11;4.30;99.90
37938;DHT22;23763;48.130;11.602;2022-12-07T15:42:37;4.20;99.90
37938;DHT22;23763;48.130;11.602;2022-12-07T15:45:04;4.30;99.90
37938;DHT22;23763;48.130;11.602;2022-12-07T15:47:33;4.30;99.90
37938;DHT22;23763;48.130;11.602;2022-12-07T15:49:59;4.40;99.90
37938;DHT22;23763;48.130;11.602;2022-12-07T15:52:24;4.40;99.90
37938;DHT22;23763;48.130;11.602;2022-12-07T15:54:50;4.40;99.90
37938;DHT22;23763;48.130;11.602;2022-12-07T15:57:15;4.40;99.90
37938;DHT22;23763;48.130;11.602;2022-12-07T15:59:41;4.40;99.90
37938;DHT22;23763;48.130;11.602;2022-12-07T16:02:09;4.40;99.90
37938;DHT22;23763;48.130;11.602;2022-12-07T16:04:35;4.40;99.90
37938;DHT22;23763;48.130;11.602;2022-12-07T16:07:01;4.40;99.90
37938;DHT22;23763;48.130;11.602;2022-12-07T16:09:27;4.30;99.90
37938;DHT22;23763;48.130;11.602;2022-12-07T16:11:53;4.30;99.90
37938;DHT22;23763;48.130;11.602;2022-12-07T16:14:19;4.20;99.90
37938;DHT22;23763;48.130;11.602;2022-12-07T16:16:44;4.20;99.90
37938;DHT22;23763;48.130;11.602;2022-12-07T16:19:10;4.10;99.90
37938;DHT22;23763;48.130;11.602;2022-12-07T16:21:36;4.10;99.90
37938;DHT22;23763;48.130;11.602;2022-12-07T16:24:02;4.10;99.90
37938;DHT22;23763;48.130;11.602;2022-12-07T16:26:28;4.10;99.90
37938;DHT22;23763;48.130;11.602;2022-12-07T16:28:54;4.10;99.90
37938;DHT22;23763;48.130;11.602;2022-12-07T16:31:25;4.10;99.90
37938;DHT22;23763;48.130;11.602;2022-12-07T16:33:56;4.10;99.90
37938;DHT22;23763;48.130;11.602;2022-12-07T16:36:22;4.00;99.90
37938;DHT22;23763;48.130;11.602;2022-12-07T16:38:50;4.10;99.90
37938;DHT22;23763;48.130;11.602;2022-12-07T16:41:15;4.10;99.90
37938;DHT22;23763;48.130;11.602;2022-12-07T16:43:41;4.10;99.90
37938;DHT22;23763;48.130;11.602;2022-12-07T16:46:07;4.10;99.90
37938;DHT22;23763;48.130;11.602;2022-12-07T16:48:36;4.00;99.90
37938;DHT22;23763;48.130;11.602;2022-12-07T16:51:08;3.90;99.90
37938;DHT22;23763;48.130;11.602;2022-12-07T16:53:35;3.90;99.90
37938;DHT22;23763;48.130;11.602;2022-12-07T16:56:01;3.90;99.90
37938;DHT22;23763;48.130;11.602;2022-12-07T16:58:27;3.90;99.90
37938;DHT22;23763;48.130;11.602;2022-12-07T17:00:53;3.90;99.90
37938;DHT22;23763;48.130;11.602;2022-12-07T17:03:19;3.90;99.90
37938;DHT22;23763;48.130;11.602;2022-12-07T17:05:46;3.80;99.90
37938;DHT22;23763;48.130;11.602;2022-12-07T17:08:12;3.90;99.90
37938;DHT22;23763;48.130;11.602;2022-12-07T17:10:40;3.90;99.90
37938;DHT22;23763;48.130;11.602;2022-12-07T17:13:07;3.90;99.90
37938;DHT22;23763;48.130;11.602;2022-12-07T17:16:04;3.80;99.90
37938;DHT22;23763;48.130;11.602;2022-12-07T17:18:31;3.80;99.90
37938;DHT22;23763;48.130;11.602;2022-12-07T17:21:07;3.80;99.90
37938;DHT22;23763;48.130;11.602;2022-12-07T17:23:35;3.80;99.90
37938;DHT22;23763;48.130;11.602;2022-12-07T17:26:13;3.80;99.90
37938;DHT22;23763;48.130;11.602;2022-12-07T17:28:39;3.80;99.90
37938;DHT22;23763;48.130;11.602;2022-12-07T17:31:06;3.80;99.90
37938;DHT22;23763;48.130;11.602;2022-12-07T17:33:32;3.80;99.90
37938;DHT22;23763;48.130;11.602;2022-12-07T17:35:58;3.70;99.90
37938;DHT22;23763;48.130;11.602;2022-12-07T17:38:25;3.70;99.90
37938;DHT22;23763;48.130;11.602;2022-12-07T17:40:52;3.60;99.90
37938;DHT22;23763;48.130;11.602;2022-12-07T17:43:18;3.50;99.90
37938;DHT22;23763;48.130;11.602;2022-12-07T17:45:43;3.30;99.90
37938;DHT22;23763;48.130;11.602;2022-12-07T17:48:09;3.40;99.90
37938;DHT22;23763;48.130;11.602;2022-12-07T17:50:34;3.20;99.90
37938;DHT22;23763;48.130;11.602;2022-12-07T17:53:18;3.20;99.90
37938;DHT22;23763;48.130;11.602;2022-12-07T17:55:44;3.20;99.90
37938;DHT22;23763;48.130;11.602;2022-12-07T17:58:10;3.30;99.90
37938;DHT22;23763;48.130;11.602;2022-12-07T18:00:35;3.30;99.90
37938;DHT22;23763;48.130;11.602;2022-12-07T18:03:04;3.30;99.90
37938;DHT22;23763;48.130;11.602;2022-12-07T18:05:31;3.20;99.90